createdAt,value
2023-11-15T00:01:38.056Z,99239.84
2023-11-15T00:04:05.804Z,99237.00
2023-11-15T00:06:33.424Z,99255.94
2023-11-15T00:09:00.777Z,99255.13
2023-11-15T00:11:28.195Z,99258.13
2023-11-15T00:13:56.051Z,99265.72
2023-11-15T00:16:23.471Z,99256.41
2023-11-15T00:18:50.930Z,99249.81
2023-11-15T00:21:19.283Z,99247.09
2023-11-15T00:23:46.804Z,99242.94
2023-11-15T00:26:14.141Z,99237.88
2023-11-15T00:28:50.927Z,99238.69
2023-11-15T00:31:18.358Z,99231.75
2023-11-15T00:33:45.804Z,99227.03
2023-11-15T00:36:13.312Z,99246.31
2023-11-15T00:38:41.352Z,99250.16
2023-11-15T00:41:09.594Z,99247.81
2023-11-15T00:43:36.947Z,99254.69
2023-11-15T00:46:05.260Z,99256.69
2023-11-15T00:48:33.536Z,99258.59
2023-11-15T00:51:01.103Z,99256.25
2023-11-15T00:53:28.436Z,99250.09
2023-11-15T00:55:55.771Z,99257.81
2023-11-15T00:58:24.436Z,99253.19
2023-11-15T01:00:56.219Z,99260.94
2023-11-15T01:03:30.075Z,99264.75
2023-11-15T01:05:57.839Z,99262.47
2023-11-15T01:08:25.278Z,99252.78
2023-11-15T01:10:53.153Z,99244.25
2023-11-15T01:13:20.868Z,99227.66
2023-11-15T01:15:48.398Z,99222.28
2023-11-15T01:18:15.817Z,99219.59
2023-11-15T01:20:43.558Z,99218.38
2023-11-15T01:23:11.018Z,99228.00
2023-11-15T01:25:38.367Z,99202.13
2023-11-15T01:28:05.717Z,99193.00
2023-11-15T01:30:33.186Z,99200.72
2023-11-15T01:33:00.751Z,99196.97
2023-11-15T01:35:28.243Z,99190.38
2023-11-15T01:37:55.686Z,99184.91
2023-11-15T01:40:23.280Z,99184.91
2023-11-15T01:42:50.950Z,99179.53
2023-11-15T01:45:18.354Z,99182.22
2023-11-15T01:47:45.743Z,99184.22
2023-11-15T01:50:14.884Z,99186.84
2023-11-15T01:52:42.454Z,99189.19
2023-11-15T01:55:16.585Z,99199.09
2023-11-15T01:57:44.397Z,99199.78
2023-11-15T02:00:12.299Z,99210.16
2023-11-15T02:02:43.770Z,99203.22
2023-11-15T02:05:11.340Z,99212.00
2023-11-15T02:07:39.151Z,99214.69
2023-11-15T02:10:07.868Z,99209.28
2023-11-15T02:12:35.252Z,99195.38
2023-11-15T02:15:02.637Z,99197.38
2023-11-15T02:17:30.081Z,99195.38
2023-11-15T02:19:57.916Z,99192.34
2023-11-15T02:22:26.561Z,99196.59
2023-11-15T02:24:53.933Z,99205.03
2023-11-15T02:27:21.262Z,99198.53
2023-11-15T02:29:48.690Z,99195.38
2023-11-15T02:32:16.129Z,99190.84
2023-11-15T02:34:43.473Z,99198.94
2023-11-15T02:37:10.799Z,99198.66
2023-11-15T02:39:38.131Z,99190.59
2023-11-15T02:42:05.960Z,99200.66
2023-11-15T02:44:36.147Z,99188.16
2023-11-15T02:47:04.281Z,99198.22
2023-11-15T02:49:31.654Z,99200.66
2023-11-15T02:51:58.946Z,99204.47
2023-11-15T02:54:26.273Z,99201.44
2023-11-15T02:56:53.575Z,99202.22
2023-11-15T02:59:21.000Z,99202.22
2023-11-15T03:01:49.170Z,99199.88
2023-11-15T03:04:16.550Z,99200.66
2023-11-15T03:06:44.261Z,99195.69
2023-11-15T03:09:11.602Z,99198.13
2023-11-15T03:11:38.989Z,99199.25
2023-11-15T03:14:06.380Z,99185.34
2023-11-15T03:16:33.727Z,99192.72
2023-11-15T03:19:01.108Z,99196.22
2023-11-15T03:21:28.427Z,99190.47
2023-11-15T03:23:56.227Z,99179.97
2023-11-15T03:26:23.625Z,99181.50
2023-11-15T03:28:52.050Z,99181.94
2023-11-15T03:31:19.339Z,99181.50
2023-11-15T03:33:49.708Z,99193.16
2023-11-15T03:36:17.257Z,99194.72
2023-11-15T03:38:44.828Z,99200.47
2023-11-15T03:41:12.204Z,99181.81
2023-11-15T03:43:42.666Z,99186.91
2023-11-15T03:46:09.966Z,99192.38
2023-11-15T03:48:37.463Z,99184.56
2023-11-15T03:51:05.341Z,99170.03
2023-11-15T03:53:33.481Z,99164.66
2023-11-15T03:56:00.866Z,99159.97
2023-11-15T03:58:28.534Z,99153.47
2023-11-15T04:01:01.176Z,99158.41
2023-11-15T04:03:28.985Z,99159.03
2023-11-15T04:05:56.472Z,99153.59
2023-11-15T04:08:24.022Z,99164.06
2023-11-15T04:10:51.460Z,99152.59
2023-11-15T04:13:20.903Z,99155.94
2023-11-15T04:15:52.137Z,99145.06
2023-11-15T04:18:19.553Z,99152.75
2023-11-15T04:20:46.939Z,99151.94
2023-11-15T04:23:14.684Z,99154.19
2023-11-15T04:25:42.006Z,99145.00
2023-11-15T04:28:09.649Z,99140.38
2023-11-15T04:30:36.956Z,99138.91
2023-11-15T04:33:04.318Z,99138.84
2023-11-15T04:35:31.717Z,99138.03
2023-11-15T04:37:59.063Z,99148.56
2023-11-15T04:40:28.126Z,99140.19
2023-11-15T04:42:55.478Z,99134.88
2023-11-15T04:45:23.558Z,99138.34
2023-11-15T04:47:51.057Z,99140.69
2023-11-15T04:50:18.499Z,99131.47
2023-11-15T04:52:45.810Z,99129.63
2023-11-15T04:55:13.257Z,99129.06
2023-11-15T04:57:40.639Z,99126.72
2023-11-15T05:00:12.639Z,99114.25
2023-11-15T05:02:40.104Z,99109.47
2023-11-15T05:05:07.609Z,99113.44
2023-11-15T05:07:36.829Z,99106.69
2023-11-15T05:10:06.100Z,99105.75
2023-11-15T05:12:33.478Z,99107.75
2023-11-15T05:15:00.925Z,99102.03
2023-11-15T05:17:28.654Z,99118.78
2023-11-15T05:19:56.088Z,99115.53
2023-11-15T05:22:23.458Z,99111.59
2023-11-15T05:24:50.770Z,99118.13
2023-11-15T05:27:19.163Z,99111.75
2023-11-15T05:29:47.043Z,99118.97
2023-11-15T05:32:14.453Z,99109.69
2023-11-15T05:34:41.804Z,99098.06
2023-11-15T05:37:09.088Z,99101.44
2023-11-15T05:39:36.397Z,99101.97
2023-11-15T05:42:04.008Z,99103.69
2023-11-15T05:44:32.451Z,99100.78
2023-11-15T05:46:59.855Z,99110.19
2023-11-15T05:49:32.046Z,99099.59
2023-11-15T05:52:06.152Z,99093.50
2023-11-15T05:54:33.550Z,99098.34
2023-11-15T05:57:00.955Z,99098.41
2023-11-15T05:59:28.390Z,99105.09
2023-11-15T06:01:56.134Z,99111.69
2023-11-15T06:04:23.514Z,99096.31
2023-11-15T06:06:50.872Z,99090.84
2023-11-15T06:09:18.829Z,99087.66
2023-11-15T06:11:46.420Z,99101.47
2023-11-15T06:14:16.940Z,99110.56
2023-11-15T06:16:44.332Z,99110.97
2023-11-15T06:19:11.672Z,99113.75
2023-11-15T06:21:42.968Z,99081.22
2023-11-15T06:24:10.552Z,99100.66
2023-11-15T06:26:38.723Z,99109.13
2023-11-15T06:29:06.708Z,99111.69
2023-11-15T06:31:34.167Z,99110.63
2023-11-15T06:34:01.563Z,99117.28
2023-11-15T06:36:29.659Z,99122.81
2023-11-15T06:38:57.065Z,99099.41
2023-11-15T06:41:24.921Z,99109.81
2023-11-15T06:43:52.266Z,99110.31
2023-11-15T06:46:19.828Z,99102.41
2023-11-15T06:48:48.160Z,99118.72
2023-11-15T06:51:16.855Z,99118.34
2023-11-15T06:53:47.082Z,99116.44
2023-11-15T06:56:15.001Z,99106.47
2023-11-15T06:58:42.801Z,99104.53
2023-11-15T07:01:10.591Z,99100.63
2023-11-15T07:03:39.266Z,99108.72
2023-11-15T07:06:08.373Z,99091.81
2023-11-15T07:08:39.461Z,99099.75
2023-11-15T07:11:09.781Z,99102.91
2023-11-15T07:13:39.377Z,99096.44
2023-11-15T07:16:10.562Z,99104.75
2023-11-15T07:18:39.463Z,99102.50
2023-11-15T07:21:08.806Z,99108.59
2023-11-15T07:23:37.148Z,99102.72
2023-11-15T07:26:05.467Z,99089.72
2023-11-15T07:28:32.851Z,99090.47
2023-11-15T07:31:00.820Z,99093.19
2023-11-15T07:33:28.286Z,99098.22
2023-11-15T07:38:38.777Z,99080.22
2023-11-15T07:41:06.205Z,99086.16
2023-11-15T07:43:33.501Z,99096.31
2023-11-15T07:46:00.922Z,99085.44
2023-11-15T07:48:28.660Z,99086.75
2023-11-15T07:50:57.547Z,99090.66
2023-11-15T07:53:25.966Z,99095.59
2023-11-15T07:55:53.980Z,99103.13
2023-11-15T07:58:21.318Z,99106.22
2023-11-15T08:00:49.112Z,99098.69
2023-11-15T08:03:17.398Z,99089.72
2023-11-15T08:05:45.109Z,99094.97
2023-11-15T08:08:12.451Z,99104.84
2023-11-15T08:10:43.400Z,99100.94
2023-11-15T08:13:10.740Z,99105.56
2023-11-15T08:15:43.412Z,99103.28
2023-11-15T08:18:11.137Z,99106.34
2023-11-15T08:20:38.576Z,99104.00
2023-11-15T08:23:06.163Z,99110.16
2023-11-15T08:25:33.484Z,99108.91
2023-11-15T08:28:02.950Z,99126.34
2023-11-15T08:30:30.814Z,99129.53
2023-11-15T08:32:58.174Z,99123.59
2023-11-15T08:35:25.582Z,99129.91
2023-11-15T08:37:55.683Z,99140.06
2023-11-15T08:40:29.134Z,99145.94
2023-11-15T08:42:58.576Z,99144.91
2023-11-15T08:45:26.898Z,99132.97
2023-11-15T08:47:58.658Z,99142.41
2023-11-15T08:50:26.640Z,99146.34
2023-11-15T08:52:55.742Z,99151.84
2023-11-15T08:55:23.056Z,99156.63
2023-11-15T08:57:50.332Z,99164.94
2023-11-15T09:00:19.470Z,99158.47
2023-11-15T09:02:48.650Z,99158.22
2023-11-15T09:05:17.221Z,99162.31
2023-11-15T09:07:45.180Z,99161.22
2023-11-15T09:10:14.787Z,99160.94
2023-11-15T09:12:42.742Z,99168.13
2023-11-15T09:15:13.551Z,99161.25
2023-11-15T09:17:47.429Z,99161.41
2023-11-15T09:20:27.250Z,99159.16
2023-11-15T09:22:55.268Z,99169.19
2023-11-15T09:25:23.519Z,99173.16
2023-11-15T09:27:51.608Z,99166.06
2023-11-15T09:30:28.363Z,99167.41
2023-11-15T09:32:56.134Z,99172.09
2023-11-15T09:35:29.046Z,99164.38
2023-11-15T09:37:58.539Z,99162.81
2023-11-15T09:40:26.840Z,99161.69
2023-11-15T09:42:55.731Z,99160.19
2023-11-15T09:45:24.691Z,99159.84
2023-11-15T09:47:52.717Z,99156.38
2023-11-15T09:50:28.413Z,99153.41
2023-11-15T09:52:59.780Z,99148.59
2023-11-15T09:55:30.410Z,99143.31
2023-11-15T09:57:57.808Z,99144.53
2023-11-15T10:00:30.501Z,99154.94
2023-11-15T10:02:58.538Z,99146.91
2023-11-15T10:05:29.675Z,99155.84
2023-11-15T10:08:09.936Z,99159.78
2023-11-15T10:10:37.410Z,99162.88
2023-11-15T10:13:15.632Z,99157.88
2023-11-15T10:15:45.785Z,99172.66
2023-11-15T10:18:15.664Z,99176.22
2023-11-15T10:20:43.985Z,99168.19
2023-11-15T10:23:12.965Z,99169.38
2023-11-15T10:25:53.508Z,99158.59
2023-11-15T10:28:23.912Z,99164.41
2023-11-15T10:51:58.029Z,99165.38
2023-11-15T10:54:29.722Z,99166.97
2023-11-15T10:56:57.709Z,99187.19
2023-11-15T10:59:26.985Z,99171.69
2023-11-15T11:01:55.830Z,99181.44
2023-11-15T11:04:23.454Z,99188.75
2023-11-15T11:06:59.384Z,99192.31
2023-11-15T11:09:59.180Z,99190.03
2023-11-15T11:12:26.792Z,99192.78
2023-11-15T11:15:20.756Z,99186.56
2023-11-15T11:17:50.015Z,99183.47
2023-11-15T11:20:27.331Z,99178.44
2023-11-15T11:23:25.039Z,99190.09
2023-11-15T11:26:31.157Z,99187.75
2023-11-15T11:29:05.030Z,99201.38
2023-11-15T11:31:32.604Z,99189.34
2023-11-15T11:34:10.003Z,99201.69
2023-11-15T11:37:03.312Z,99195.78
2023-11-15T11:39:47.402Z,99194.31
2023-11-15T11:42:28.016Z,99189.66
2023-11-15T11:44:58.536Z,99200.56
2023-11-15T11:47:26.211Z,99197.47
2023-11-15T11:49:53.836Z,99190.50
2023-11-15T11:52:21.260Z,99199.03
2023-11-15T11:54:53.908Z,99195.19
2023-11-15T11:57:22.557Z,99213.03
2023-11-15T12:00:03.273Z,99211.09
2023-11-15T12:02:36.118Z,99204.50
2023-11-15T12:05:04.403Z,99214.59
2023-11-15T12:07:31.791Z,99224.69
2023-11-15T12:10:06.326Z,99219.97
2023-11-15T12:12:33.677Z,99218.03
2023-11-15T12:15:01.131Z,99214.16
2023-11-15T12:17:41.678Z,99219.19
2023-11-15T12:20:10.303Z,99214.91
2023-11-15T12:22:47.267Z,99211.44
2023-11-15T12:25:15.655Z,99216.84
2023-11-15T12:27:45.913Z,99213.34
2023-11-15T12:30:13.398Z,99208.66
2023-11-15T12:32:43.134Z,99212.91
2023-11-15T12:35:13.137Z,99221.47
2023-11-15T12:37:40.478Z,99218.34
2023-11-15T12:40:24.009Z,99214.09
2023-11-15T12:42:57.625Z,99208.66
2023-11-15T12:45:35.287Z,99219.88
2023-11-15T12:48:06.605Z,99221.41
2023-11-15T12:50:35.910Z,99218.28
2023-11-15T12:53:07.468Z,99225.28
2023-11-15T12:55:54.437Z,99229.91
2023-11-15T12:58:30.625Z,99234.94
2023-11-15T13:01:02.194Z,99237.63
2023-11-15T13:03:32.239Z,99244.16
2023-11-15T13:06:14.457Z,99241.84
2023-11-15T13:08:51.789Z,99254.59
2023-11-15T13:11:26.135Z,99254.25
2023-11-15T13:13:53.694Z,99249.94
2023-11-15T13:16:21.680Z,99261.94
2023-11-15T13:18:49.930Z,99269.31
2023-11-15T13:21:18.063Z,99273.19
2023-11-15T13:23:50.460Z,99270.09
2023-11-15T13:26:18.161Z,99253.38
2023-11-15T13:28:48.788Z,99259.22
2023-11-15T13:31:18.961Z,99268.53
2023-11-15T13:33:48.335Z,99271.63
2023-11-15T13:36:20.228Z,99275.50
2023-11-15T13:38:47.999Z,99282.47
2023-11-15T13:41:16.882Z,99286.31
2023-11-15T13:43:48.171Z,99286.31
2023-11-15T13:46:15.894Z,99291.75
2023-11-15T13:48:43.601Z,99297.94
2023-11-15T13:51:13.999Z,99300.25
2023-11-15T13:53:42.083Z,99309.56
2023-11-15T13:56:10.053Z,99314.22
2023-11-15T13:58:37.848Z,99317.69
2023-11-15T14:01:06.322Z,99325.03
2023-11-15T14:03:34.472Z,99325.78
2023-11-15T14:06:06.389Z,99337.38
2023-11-15T14:11:14.174Z,99341.19
2023-11-15T14:13:43.736Z,99341.09
2023-11-15T14:16:11.411Z,99341.84
2023-11-15T14:18:38.805Z,99348.81
2023-11-15T14:21:07.205Z,99351.81
2023-11-15T14:23:34.804Z,99361.91
2023-11-15T14:26:03.585Z,99364.19
2023-11-15T14:28:31.060Z,99366.47
2023-11-15T14:30:58.681Z,99358.69
2023-11-15T14:33:26.203Z,99378.84
2023-11-15T14:35:53.698Z,99375.75
2023-11-15T14:38:21.062Z,99376.50
2023-11-15T14:40:48.731Z,99381.91
2023-11-15T14:43:16.951Z,99385.81
2023-11-15T14:45:48.784Z,99386.22
2023-11-15T14:48:16.955Z,99405.94
2023-11-15T14:50:44.373Z,99395.91
2023-11-15T14:53:23.775Z,99401.25
2023-11-15T14:55:51.710Z,99412.09
2023-11-15T14:58:23.964Z,99408.91
2023-11-15T15:00:52.264Z,99415.84
2023-11-15T15:03:20.851Z,99425.16
2023-11-15T15:05:51.531Z,99443.69
2023-11-15T15:08:19.976Z,99440.84
2023-11-15T15:10:50.573Z,99447.34
2023-11-15T15:13:17.987Z,99458.78
2023-11-15T15:15:45.339Z,99465.03
2023-11-15T15:18:16.917Z,99462.66
2023-11-15T15:20:49.454Z,99475.81
2023-11-15T15:23:18.221Z,99481.91
2023-11-15T15:25:45.676Z,99480.66
2023-11-15T15:28:13.641Z,99489.84
2023-11-15T15:30:41.044Z,99489.41
2023-11-15T15:33:09.106Z,99488.28
2023-11-15T15:35:39.361Z,99501.09
2023-11-15T15:38:09.528Z,99503.22
2023-11-15T15:40:39.840Z,99522.63
2023-11-15T15:43:07.373Z,99516.75
2023-11-15T15:45:36.850Z,99516.19
2023-11-15T15:48:05.973Z,99530.13
2023-11-15T15:50:33.961Z,99519.97
2023-11-15T15:53:01.441Z,99531.91
2023-11-15T15:55:28.849Z,99526.06
2023-11-15T15:57:56.189Z,99529.81
2023-11-15T16:00:25.103Z,99530.59
2023-11-15T16:02:54.287Z,99542.72
2023-11-15T16:05:22.908Z,99553.09
2023-11-15T16:07:50.306Z,99550.22
2023-11-15T16:10:17.629Z,99556.09
2023-11-15T16:12:45.001Z,99556.75
2023-11-15T16:15:17.982Z,99557.84
2023-11-15T16:17:45.955Z,99555.13
2023-11-15T16:20:13.874Z,99550.03
2023-11-15T16:22:41.187Z,99554.28
2023-11-15T16:25:09.544Z,99572.25
2023-11-15T16:27:37.813Z,99568.78
2023-11-15T16:30:06.538Z,99574.81
2023-11-15T16:32:36.418Z,99568.28
2023-11-15T16:35:06.322Z,99573.94
2023-11-15T16:37:36.876Z,99570.34
2023-11-15T16:40:06.703Z,99592.34
2023-11-15T16:42:34.402Z,99591.22
2023-11-15T16:45:02.604Z,99606.16
2023-11-15T16:47:30.245Z,99613.84
2023-11-15T16:49:59.272Z,99621.81
2023-11-15T16:52:26.620Z,99624.50
2023-11-15T16:54:53.929Z,99622.75
2023-11-15T16:57:21.288Z,99620.84
2023-11-15T16:59:50.553Z,99632.00
2023-11-15T17:02:18.694Z,99631.47
2023-11-15T17:04:46.104Z,99637.44
2023-11-15T17:07:15.594Z,99636.59
2023-11-15T17:09:43.900Z,99630.94
2023-11-15T17:12:14.613Z,99640.44
2023-11-15T17:14:42.029Z,99630.97
2023-11-15T17:17:09.352Z,99641.88
2023-11-15T17:19:37.151Z,99634.47
2023-11-15T17:22:04.677Z,99634.31
2023-11-15T17:24:31.981Z,99637.97
2023-11-15T17:26:59.283Z,99645.81
2023-11-15T17:29:26.679Z,99647.66
2023-11-15T17:31:55.174Z,99652.69
2023-11-15T17:34:22.724Z,99649.09
2023-11-15T17:36:50.051Z,99650.47
2023-11-15T17:39:17.414Z,99648.91
2023-11-15T17:41:44.800Z,99653.03
2023-11-15T17:44:15.931Z,99651.78
2023-11-15T17:46:43.660Z,99652.47
2023-11-15T17:49:12.240Z,99652.13
2023-11-15T17:51:39.810Z,99655.03
2023-11-15T17:54:08.527Z,99652.53
2023-11-15T17:56:36.039Z,99648.63
2023-11-15T17:59:04.586Z,99675.28
2023-11-15T18:01:33.772Z,99666.34
2023-11-15T18:04:01.292Z,99672.09
2023-11-15T18:06:29.024Z,99671.38
2023-11-15T18:08:56.613Z,99677.16
2023-11-15T18:11:24.075Z,99676.44
2023-11-15T18:13:51.349Z,99680.19
2023-11-15T18:16:18.695Z,99681.34
2023-11-15T18:18:46.057Z,99689.69
2023-11-15T18:21:13.941Z,99697.94
2023-11-15T18:23:41.749Z,99706.03
2023-11-15T18:26:09.625Z,99716.63
2023-11-15T18:28:39.227Z,99709.88
2023-11-15T18:31:07.723Z,99712.31
2023-11-15T18:33:35.468Z,99717.34
2023-11-15T18:36:02.929Z,99718.72
2023-11-15T18:38:30.201Z,99726.66
2023-11-15T18:40:58.162Z,99724.53
2023-11-15T18:43:25.563Z,99731.22
2023-11-15T18:45:52.925Z,99738.13
2023-11-15T18:48:20.376Z,99736.28
2023-11-15T18:50:48.032Z,99735.03
2023-11-15T18:53:16.029Z,99736.47
2023-11-15T18:55:44.241Z,99736.78
2023-11-15T18:58:11.564Z,99743.84
2023-11-15T19:00:39.026Z,99736.13
2023-11-15T19:03:09.726Z,99741.34
2023-11-15T19:05:38.567Z,99739.09
2023-11-15T19:08:07.635Z,99743.81
2023-11-15T19:10:35.030Z,99749.97
2023-11-15T19:13:02.465Z,99748.06
2023-11-15T19:15:31.159Z,99745.13
2023-11-15T19:17:58.816Z,99755.59
2023-11-15T19:20:29.946Z,99754.34
2023-11-15T19:22:58.695Z,99758.88
2023-11-15T19:25:27.058Z,99748.03
2023-11-15T19:27:55.117Z,99765.19
2023-11-15T19:30:24.426Z,99760.50
2023-11-15T19:32:54.847Z,99769.38
2023-11-15T19:35:22.797Z,99774.41
2023-11-15T19:37:51.848Z,99779.72
2023-11-15T19:40:20.742Z,99770.56
2023-11-15T19:42:49.455Z,99782.28
2023-11-15T19:45:18.050Z,99785.69
2023-11-15T19:47:45.612Z,99789.28
2023-11-15T19:50:13.010Z,99799.06
2023-11-15T19:52:41.246Z,99812.47
2023-11-15T19:55:09.365Z,99813.97
2023-11-15T19:57:38.409Z,99812.38
2023-11-15T20:00:06.979Z,99819.25
2023-11-15T20:02:41.020Z,99817.22
2023-11-15T20:05:14.277Z,99824.44
2023-11-15T20:07:41.630Z,99824.44
2023-11-15T20:10:10.420Z,99827.47
2023-11-15T20:12:40.957Z,99818.72
2023-11-15T20:15:11.060Z,99823.56
2023-11-15T20:17:38.843Z,99825.19
2023-11-15T20:20:08.036Z,99830.03
2023-11-15T20:22:45.167Z,99826.88
2023-11-15T20:25:19.752Z,99837.25
2023-11-15T20:27:47.302Z,99837.78
2023-11-15T20:30:15.250Z,99841.81
2023-11-15T20:32:42.929Z,99834.94
2023-11-15T20:35:11.928Z,99834.06
2023-11-15T20:37:39.458Z,99831.16
2023-11-15T20:40:09.128Z,99838.47
2023-11-15T20:42:36.669Z,99846.78
2023-11-15T20:45:04.421Z,99854.53
2023-11-15T20:47:33.452Z,99847.91
2023-11-15T20:50:00.987Z,99853.56
2023-11-15T20:52:28.323Z,99863.53
2023-11-15T20:54:55.653Z,99856.59
2023-11-15T20:57:24.097Z,99862.41
2023-11-15T20:59:57.115Z,99859.28
2023-11-15T21:02:26.194Z,99866.69
2023-11-15T21:04:53.640Z,99870.28
2023-11-15T21:07:21.038Z,99873.34
2023-11-15T21:09:48.819Z,99880.41
2023-11-15T21:12:16.722Z,99878.81
2023-11-15T21:14:44.041Z,99884.47
2023-11-15T21:17:11.343Z,99877.16
2023-11-15T21:19:39.781Z,99879.41
2023-11-15T21:22:07.130Z,99876.53
2023-11-15T21:24:34.473Z,99883.28
2023-11-15T21:27:01.914Z,99887.13
2023-11-15T21:29:29.306Z,99882.13
2023-11-15T21:31:57.205Z,99883.56
2023-11-15T21:34:24.546Z,99886.63
2023-11-15T21:36:52.527Z,99885.41
2023-11-15T21:39:20.765Z,99888.03
2023-11-15T21:41:48.174Z,99882.88
2023-11-15T21:44:18.634Z,99892.53
2023-11-15T21:46:45.938Z,99889.06
2023-11-15T21:49:14.776Z,99894.16
2023-11-15T21:51:42.573Z,99901.91
2023-11-15T21:54:10.999Z,99900.03
2023-11-15T21:56:38.338Z,99897.06
2023-11-15T21:59:05.786Z,99904.50
2023-11-15T22:01:33.172Z,99902.75
2023-11-15T22:04:00.707Z,99914.13
2023-11-15T22:06:28.228Z,99912.69
2023-11-15T22:08:55.694Z,99913.00
2023-11-15T22:11:23.087Z,99915.38
2023-11-15T22:13:50.423Z,99924.38
2023-11-15T22:16:18.089Z,99923.44
2023-11-15T22:18:47.357Z,99926.44
2023-11-15T22:21:14.818Z,99912.25
2023-11-15T22:23:42.292Z,99920.78
2023-11-15T22:26:09.652Z,99930.56
2023-11-15T22:28:37.164Z,99924.53
2023-11-15T22:31:04.837Z,99927.09
2023-11-15T22:33:32.192Z,99927.53
2023-11-15T22:36:04.569Z,99933.38
2023-11-15T22:38:31.903Z,99937.50
2023-11-15T22:40:59.247Z,99938.72
2023-11-15T22:43:26.724Z,99938.53
2023-11-15T22:45:54.261Z,99943.91
2023-11-15T22:48:21.813Z,99939.97
2023-11-15T22:50:49.170Z,99953.69
2023-11-15T22:53:16.645Z,99943.28
2023-11-15T22:55:43.947Z,99950.06
2023-11-15T22:58:12.241Z,99959.03
2023-11-15T23:00:39.629Z,99958.72
2023-11-15T23:03:10.531Z,99965.19
2023-11-15T23:05:42.032Z,99954.75
2023-11-15T23:08:09.998Z,99959.97
2023-11-15T23:10:39.797Z,99948.00
2023-11-15T23:13:07.442Z,99971.16
2023-11-15T23:15:34.982Z,99967.50
2023-11-15T23:18:02.544Z,99975.88
2023-11-15T23:20:35.022Z,99966.38
2023-11-15T23:23:06.070Z,99975.41
2023-11-15T23:25:34.299Z,99984.06
2023-11-15T23:28:01.877Z,99981.38
2023-11-15T23:30:29.234Z,99982.47
2023-11-15T23:32:58.905Z,99987.81
2023-11-15T23:35:26.384Z,99987.34
2023-11-15T23:37:58.902Z,99984.69
2023-11-15T23:40:26.680Z,99996.97
2023-11-15T23:42:55.264Z,100002.81
2023-11-15T23:45:22.945Z,100001.72
2023-11-15T23:47:51.447Z,100003.13
2023-11-15T23:50:19.442Z,100005.78
2023-11-15T23:52:55.589Z,100005.59
2023-11-15T23:55:23.001Z,99998.75
2023-11-15T23:57:50.478Z,100010.91
